createdAt,value
2023-01-10T00:00:58.720Z,101563.75
2023-01-10T00:03:26.478Z,101577.34
2023-01-10T00:05:55.663Z,101579.19
2023-01-10T00:08:23.437Z,101578.91
2023-01-10T00:10:51.182Z,101589.50
2023-01-10T00:13:24.800Z,101585.53
2023-01-10T00:15:53.559Z,101585.69
2023-01-10T00:18:22.282Z,101582.53
2023-01-10T00:20:50.483Z,101579.63
2023-01-10T00:23:23.319Z,101583.72
2023-01-10T00:25:51.115Z,101572.97
2023-01-10T00:28:20.675Z,101574.31
2023-01-10T00:30:51.452Z,101565.00
2023-01-10T00:33:20.765Z,101563.66
2023-01-10T00:35:49.135Z,101572.75
2023-01-10T00:38:17.415Z,101572.66
2023-01-10T00:40:46.869Z,101572.97
2023-01-10T00:43:31.928Z,101579.16
2023-01-10T00:45:59.773Z,101575.38
2023-01-10T00:48:27.580Z,101583.06
2023-01-10T00:50:55.421Z,101583.59
2023-01-10T00:53:23.479Z,101580.28
2023-01-10T00:55:52.575Z,101582.06
2023-01-10T00:58:20.326Z,101567.41
2023-01-10T01:00:49.725Z,101567.69
2023-01-10T01:03:19.647Z,101577.06
2023-01-10T01:05:48.745Z,101585.28
2023-01-10T01:08:17.832Z,101576.13
2023-01-10T01:10:46.071Z,101586.44
2023-01-10T01:13:17.401Z,101594.09
2023-01-10T01:15:45.982Z,101588.06
2023-01-10T01:18:16.412Z,101576.09
2023-01-10T01:20:45.834Z,101585.25
2023-01-10T01:23:13.903Z,101598.75
2023-01-10T01:25:42.133Z,101589.25
2023-01-10T01:28:10.621Z,101596.19
2023-01-10T01:30:39.910Z,101590.56
2023-01-10T01:33:08.428Z,101594.19
2023-01-10T01:35:36.545Z,101584.44
2023-01-10T01:38:04.332Z,101589.09
2023-01-10T01:40:32.234Z,101591.59
2023-01-10T01:43:00.040Z,101588.44
2023-01-10T01:45:50.382Z,101586.31
2023-01-10T01:48:29.588Z,101590.59
2023-01-10T01:51:05.489Z,101588.91
2023-01-10T01:53:37.913Z,101586.59
2023-01-10T01:56:10.826Z,101587.25
2023-01-10T01:58:45.075Z,101572.72
2023-01-10T02:01:16.794Z,101580.88
2023-01-10T02:03:49.163Z,101576.41
2023-01-10T02:06:19.694Z,101571.38
2023-01-10T02:08:54.752Z,101578.00
2023-01-10T02:11:22.457Z,101578.88
2023-01-10T02:13:51.271Z,101577.69
2023-01-10T02:16:20.469Z,101576.81
2023-01-10T02:18:48.296Z,101582.19
2023-01-10T02:21:31.243Z,101575.97
2023-01-10T02:24:42.950Z,101578.22
2023-01-10T02:27:26.468Z,101563.44
2023-01-10T02:30:39.201Z,101569.78
2023-01-10T02:33:15.536Z,101567.44
2023-01-10T02:36:07.094Z,101574.03
2023-01-10T02:38:47.634Z,101569.28
2023-01-10T02:41:20.868Z,101572.63
2023-01-10T02:43:53.335Z,101578.09
2023-01-10T02:46:27.499Z,101573.06
2023-01-10T02:48:57.301Z,101579.66
2023-01-10T02:51:28.182Z,101571.78
2023-01-10T02:54:02.058Z,101576.59
2023-01-10T02:56:54.216Z,101580.22
2023-01-10T02:59:54.690Z,101573.47
2023-01-10T03:02:37.974Z,101587.09
2023-01-10T03:05:16.405Z,101586.59
2023-01-10T03:07:53.865Z,101578.00
2023-01-10T03:10:27.632Z,101581.78
2023-01-10T03:13:00.146Z,101576.41
2023-01-10T03:15:33.389Z,101572.34
2023-01-10T03:18:05.400Z,101580.16
2023-01-10T03:20:37.656Z,101576.47
2023-01-10T03:23:07.343Z,101581.59
2023-01-10T03:25:39.161Z,101577.66
2023-01-10T03:28:10.755Z,101575.38
2023-01-10T03:30:44.811Z,101575.47
2023-01-10T03:33:13.989Z,101571.47
2023-01-10T03:35:57.518Z,101573.31
2023-01-10T03:38:32.551Z,101550.38
2023-01-10T03:41:07.897Z,101554.88
2023-01-10T03:43:59.378Z,101550.81
2023-01-10T03:46:33.657Z,101542.41
2023-01-10T03:49:04.681Z,101542.09
2023-01-10T03:51:34.737Z,101545.63
2023-01-10T03:54:03.725Z,101550.91
2023-01-10T03:56:31.474Z,101553.75
2023-01-10T03:58:59.931Z,101554.38
2023-01-10T04:01:27.732Z,101548.25
2023-01-10T04:03:55.616Z,101554.25
2023-01-10T04:06:23.412Z,101563.13
2023-01-10T04:08:52.519Z,101553.22
2023-01-10T04:11:20.218Z,101545.25
2023-01-10T04:13:48.798Z,101536.41
2023-01-10T04:16:16.560Z,101529.66
2023-01-10T04:18:44.296Z,101518.78
2023-01-10T04:21:12.165Z,101518.50
2023-01-10T04:23:39.935Z,101504.53
2023-01-10T04:26:09.129Z,101504.31
2023-01-10T04:28:36.852Z,101496.13
2023-01-10T04:31:04.622Z,101485.31
2023-01-10T04:33:32.419Z,101466.78
2023-01-10T04:36:00.307Z,101472.09
2023-01-10T04:38:28.155Z,101471.94
2023-01-10T04:40:56.980Z,101467.69
2023-01-10T04:43:26.788Z,101458.53
2023-01-10T04:45:54.578Z,101453.09
2023-01-10T04:48:22.455Z,101450.22
2023-01-10T04:50:51.774Z,101444.19
2023-01-10T04:53:20.230Z,101440.50
2023-01-10T04:55:48.254Z,101448.78
2023-01-10T04:58:16.167Z,101441.31
2023-01-10T05:00:45.358Z,101436.28
2023-01-10T05:03:13.193Z,101436.94
2023-01-10T05:05:41.074Z,101427.25
2023-01-10T05:08:08.841Z,101424.97
2023-01-10T05:10:36.642Z,101430.59
2023-01-10T05:13:04.446Z,101427.66
2023-01-10T05:15:32.235Z,101433.44
2023-01-10T05:18:01.833Z,101438.00
2023-01-10T05:20:29.547Z,101448.88
2023-01-10T05:22:57.307Z,101450.09
2023-01-10T05:25:25.169Z,101438.13
2023-01-10T05:27:52.934Z,101433.53
2023-01-10T05:30:20.916Z,101427.50
2023-01-10T05:32:48.777Z,101427.66
2023-01-10T05:35:18.373Z,101425.22
2023-01-10T05:37:46.173Z,101414.91
2023-01-10T05:40:14.278Z,101415.63
2023-01-10T05:42:42.726Z,101410.25
2023-01-10T05:45:11.359Z,101398.34
2023-01-10T05:47:39.290Z,101412.78
2023-01-10T05:50:07.972Z,101409.72
2023-01-10T05:52:37.096Z,101406.25
2023-01-10T05:55:05.615Z,101404.09
2023-01-10T05:57:33.506Z,101398.88
2023-01-10T06:00:01.831Z,101387.69
2023-01-10T06:02:30.534Z,101376.53
2023-01-10T06:04:58.360Z,101369.63
2023-01-10T06:07:26.153Z,101368.59
2023-01-10T06:09:55.245Z,101364.41
2023-01-10T06:12:22.957Z,101356.41
2023-01-10T06:14:50.710Z,101351.56
2023-01-10T06:17:18.425Z,101346.00
2023-01-10T06:19:46.682Z,101345.41
2023-01-10T06:22:14.393Z,101346.59
2023-01-10T06:24:42.459Z,101343.81
2023-01-10T06:27:11.591Z,101339.78
2023-01-10T06:29:39.425Z,101331.38
2023-01-10T06:32:07.296Z,101328.72
2023-01-10T06:34:35.040Z,101331.06
2023-01-10T06:37:02.857Z,101336.25
2023-01-10T06:39:30.591Z,101329.34
2023-01-10T06:41:58.284Z,101336.63
2023-01-10T06:44:27.482Z,101316.97
2023-01-10T06:46:55.248Z,101311.13
2023-01-10T06:49:22.969Z,101312.56
2023-01-10T06:51:50.713Z,101314.69
2023-01-10T06:54:18.626Z,101315.75
2023-01-10T06:56:48.620Z,101307.69
2023-01-10T06:59:16.756Z,101286.16
2023-01-10T07:01:46.037Z,101289.09
2023-01-10T07:04:13.949Z,101308.47
2023-01-10T07:06:42.422Z,101298.72
2023-01-10T07:09:10.267Z,101305.09
2023-01-10T07:11:38.026Z,101305.31
2023-01-10T07:14:05.869Z,101301.91
2023-01-10T07:16:33.618Z,101309.59
2023-01-10T07:19:02.948Z,101313.03
2023-01-10T07:21:30.777Z,101301.09
2023-01-10T07:23:59.377Z,101288.72
2023-01-10T07:26:28.230Z,101298.72
2023-01-10T07:28:56.003Z,101298.19
2023-01-10T07:31:24.514Z,101300.00
2023-01-10T07:33:52.873Z,101285.72
2023-01-10T07:36:22.656Z,101284.44
2023-01-10T07:38:50.463Z,101290.19
2023-01-10T07:41:18.229Z,101295.75
2023-01-10T07:43:45.956Z,101288.06
2023-01-10T07:46:14.412Z,101291.84
2023-01-10T07:48:42.693Z,101294.88
2023-01-10T07:51:10.917Z,101300.06
2023-01-10T07:53:40.244Z,101291.91
2023-01-10T07:56:08.844Z,101292.06
2023-01-10T07:58:37.120Z,101302.50
2023-01-10T08:01:07.554Z,101298.06
2023-01-10T08:03:35.876Z,101290.06
2023-01-10T08:06:06.144Z,101296.44
2023-01-10T08:08:34.829Z,101292.53
2023-01-10T08:11:04.204Z,101291.66
2023-01-10T08:13:32.741Z,101292.78
2023-01-10T08:16:01.040Z,101280.03
2023-01-10T08:18:28.940Z,101278.16
2023-01-10T08:20:56.787Z,101282.00
2023-01-10T08:23:24.949Z,101278.53
2023-01-10T08:25:52.863Z,101279.63
2023-01-10T08:28:22.069Z,101275.78
2023-01-10T08:30:50.705Z,101266.31
2023-01-10T08:33:18.593Z,101268.28
2023-01-10T08:35:46.301Z,101265.34
2023-01-10T08:38:14.093Z,101267.97
2023-01-10T08:40:42.021Z,101269.91
2023-01-10T08:43:12.653Z,101266.38
2023-01-10T08:45:42.328Z,101264.91
2023-01-10T08:48:11.470Z,101254.50
2023-01-10T08:50:39.196Z,101254.47
2023-01-10T08:53:07.203Z,101248.09
2023-01-10T08:55:35.688Z,101246.72
2023-01-10T08:58:03.935Z,101243.53
2023-01-10T09:00:32.130Z,101249.16
2023-01-10T09:03:01.249Z,101243.31
2023-01-10T09:05:29.068Z,101243.84
2023-01-10T09:08:00.904Z,101251.91
2023-01-10T09:10:29.506Z,101250.41
2023-01-10T09:13:01.395Z,101256.78
2023-01-10T09:15:31.324Z,101252.22
2023-01-10T09:18:02.135Z,101257.19
2023-01-10T09:20:30.549Z,101254.34
2023-01-10T09:22:59.652Z,101248.03
2023-01-10T09:25:27.648Z,101244.78
2023-01-10T09:28:00.048Z,101248.75
2023-01-10T09:30:29.476Z,101245.97
2023-01-10T09:32:58.579Z,101249.94
2023-01-10T09:35:29.492Z,101246.09
2023-01-10T09:37:58.418Z,101247.09
2023-01-10T09:40:36.176Z,101253.59
2023-01-10T09:43:17.708Z,101240.56
2023-01-10T09:45:54.535Z,101247.28
2023-01-10T09:48:27.975Z,101247.19
2023-01-10T09:51:05.641Z,101238.78
2023-01-10T09:53:36.173Z,101245.63
2023-01-10T09:56:06.176Z,101240.91
2023-01-10T09:58:37.712Z,101246.59
2023-01-10T10:01:10.799Z,101244.09
2023-01-10T10:03:46.730Z,101239.03
2023-01-10T10:06:16.448Z,101245.84
2023-01-10T10:08:46.552Z,101238.06
2023-01-10T10:11:39.097Z,101237.16
2023-01-10T10:14:16.064Z,101235.25
2023-01-10T10:17:07.655Z,101239.69
2023-01-10T10:19:53.841Z,101241.34
2023-01-10T10:22:28.586Z,101246.06
2023-01-10T10:25:04.037Z,101252.69
2023-01-10T10:27:37.425Z,101263.47
2023-01-10T10:30:23.108Z,101254.81
2023-01-10T10:33:04.244Z,101254.50
2023-01-10T10:35:37.154Z,101260.22
2023-01-10T10:38:12.290Z,101247.19
2023-01-10T10:40:43.612Z,101251.47
2023-01-10T10:43:19.829Z,101254.06
2023-01-10T10:45:52.544Z,101242.81
2023-01-10T10:48:25.239Z,101245.75
2023-01-10T10:51:01.505Z,101243.47
2023-01-10T10:53:32.707Z,101242.69
2023-01-10T10:56:01.508Z,101235.75
2023-01-10T10:58:30.845Z,101234.41
2023-01-10T11:00:58.987Z,101232.16
2023-01-10T11:03:32.271Z,101232.09
2023-01-10T11:06:01.508Z,101234.03
2023-01-10T11:08:31.936Z,101232.63
2023-01-10T11:11:03.489Z,101222.88
2023-01-10T11:13:47.106Z,101221.81
2023-01-10T11:16:25.182Z,101216.19
2023-01-10T11:19:12.104Z,101203.47
2023-01-10T11:21:41.437Z,101206.78
2023-01-10T11:24:23.088Z,101199.84
2023-01-10T11:26:51.182Z,101185.38
2023-01-10T11:29:22.437Z,101178.47
2023-01-10T11:31:51.599Z,101174.91
2023-01-10T11:34:24.430Z,101171.53
2023-01-10T11:36:57.518Z,101174.41
2023-01-10T11:39:27.964Z,101172.47
2023-01-10T11:41:58.172Z,101177.50
2023-01-10T11:44:27.772Z,101167.13
2023-01-10T11:46:58.007Z,101169.09
2023-01-10T11:49:35.703Z,101165.16
2023-01-10T11:52:06.293Z,101163.97
2023-01-10T11:54:35.642Z,101161.81
2023-01-10T11:57:09.439Z,101159.06
2023-01-10T11:59:39.120Z,101147.91
2023-01-10T12:02:16.938Z,101147.22
2023-01-10T12:04:47.568Z,101147.19
2023-01-10T12:07:15.382Z,101147.13
2023-01-10T12:09:45.721Z,101140.44
2023-01-10T12:12:22.364Z,101149.94
2023-01-10T12:14:51.259Z,101140.78
2023-01-10T12:17:28.418Z,101138.63
2023-01-10T12:20:00.377Z,101138.50
2023-01-10T12:22:32.127Z,101132.03
2023-01-10T12:25:04.884Z,101122.41
2023-01-10T12:27:34.377Z,101121.34
2023-01-10T12:30:06.608Z,101118.81
2023-01-10T12:32:40.530Z,101127.56
2023-01-10T12:35:15.005Z,101125.81
2023-01-10T12:37:49.449Z,101122.09
2023-01-10T12:40:26.619Z,101114.63
2023-01-10T12:43:16.084Z,101107.59
2023-01-10T12:45:50.088Z,101101.56
2023-01-10T12:48:25.319Z,101098.97
2023-01-10T12:50:58.860Z,101100.41
2023-01-10T12:53:33.552Z,101099.22
2023-01-10T12:56:08.019Z,101091.56
2023-01-10T12:58:42.965Z,101092.38
2023-01-10T13:01:15.676Z,101086.13
2023-01-10T13:03:46.369Z,101079.06
2023-01-10T13:06:22.545Z,101095.50
2023-01-10T13:08:52.159Z,101082.66
2023-01-10T13:11:25.521Z,101074.72
2023-01-10T13:13:56.827Z,101078.59
2023-01-10T13:16:34.674Z,101077.13
2023-01-10T13:19:05.800Z,101078.72
2023-01-10T13:21:35.244Z,101082.09
2023-01-10T13:24:05.115Z,101075.94
2023-01-10T13:26:53.397Z,101065.81
2023-01-10T13:29:23.499Z,101071.66
2023-01-10T13:31:57.402Z,101059.72
2023-01-10T13:34:27.837Z,101067.72
2023-01-10T13:36:59.247Z,101063.97
2023-01-10T13:39:33.125Z,101056.97
2023-01-10T13:42:49.235Z,101058.66
2023-01-10T13:45:19.878Z,101054.16
2023-01-10T13:48:27.537Z,101051.41
2023-01-10T13:51:15.580Z,101045.81
2023-01-10T13:53:59.770Z,101051.34
2023-01-10T13:56:33.251Z,101036.22
2023-01-10T13:59:20.639Z,101045.63
2023-01-10T14:02:10.841Z,101051.84
2023-01-10T14:04:45.932Z,101036.69
2023-01-10T14:07:24.082Z,101043.53
2023-01-10T14:09:53.834Z,101037.84
2023-01-10T14:12:35.460Z,101032.91
2023-01-10T14:15:09.235Z,101021.06
2023-01-10T14:17:38.955Z,101014.25
2023-01-10T14:20:18.349Z,101021.75
2023-01-10T14:22:59.972Z,101016.03
2023-01-10T14:25:29.503Z,101011.78
2023-01-10T14:27:59.033Z,101006.72
2023-01-10T14:30:32.751Z,100997.88
2023-01-10T14:33:05.742Z,100997.19
2023-01-10T14:35:39.871Z,100990.97
2023-01-10T14:38:17.420Z,100992.63
2023-01-10T14:40:47.020Z,100991.00
2023-01-10T14:43:18.218Z,101003.88
2023-01-10T14:45:53.699Z,100989.69
2023-01-10T14:48:32.928Z,100994.81
2023-01-10T14:51:17.170Z,100987.63
2023-01-10T14:53:45.038Z,100980.97
2023-01-10T14:56:21.204Z,100993.38
2023-01-10T14:58:49.009Z,100994.13
2023-01-10T15:01:24.340Z,100989.47
2023-01-10T15:03:53.193Z,100994.19
2023-01-10T15:06:21.110Z,100990.34
2023-01-10T15:08:57.075Z,100984.91
2023-01-10T15:11:27.868Z,100998.84
2023-01-10T15:14:00.532Z,100984.34
2023-01-10T15:16:30.045Z,100986.69
2023-01-10T15:18:58.419Z,100992.34
2023-01-10T15:21:26.415Z,101002.09
2023-01-10T15:23:54.222Z,100995.81
2023-01-10T15:26:28.530Z,101003.63
2023-01-10T15:29:13.837Z,100990.97
2023-01-10T15:31:44.427Z,100988.56
2023-01-10T15:34:17.748Z,100972.97
2023-01-10T15:36:49.080Z,100968.81
2023-01-10T15:39:23.499Z,100966.50
2023-01-10T15:41:56.483Z,100960.84
2023-01-10T15:44:34.829Z,100960.06
2023-01-10T15:47:04.400Z,100963.66
2023-01-10T15:49:32.399Z,100956.38
2023-01-10T15:52:00.383Z,100959.00
2023-01-10T15:54:33.124Z,100961.75
2023-01-10T15:57:24.457Z,100948.16
2023-01-10T15:59:53.240Z,100946.97
2023-01-10T16:02:31.713Z,100932.34
2023-01-10T16:05:07.963Z,100942.41
2023-01-10T16:07:37.192Z,100943.16
2023-01-10T16:10:08.621Z,100935.41
2023-01-10T16:12:56.666Z,100940.13
2023-01-10T16:15:26.429Z,100935.38
2023-01-10T16:17:55.948Z,100932.59
2023-01-10T16:20:27.949Z,100935.72
2023-01-10T16:22:56.631Z,100930.31
2023-01-10T16:25:28.527Z,100922.50
2023-01-10T16:27:56.950Z,100923.81
2023-01-10T16:30:26.516Z,100931.41
2023-01-10T16:32:57.264Z,100932.00
2023-01-10T16:35:25.304Z,100926.03
2023-01-10T16:37:56.578Z,100919.41
2023-01-10T16:40:28.591Z,100932.81
2023-01-10T16:43:14.142Z,100924.69
2023-01-10T16:45:42.376Z,100932.09
2023-01-10T16:48:12.246Z,100929.72
2023-01-10T16:50:40.043Z,100922.63
2023-01-10T16:53:08.685Z,100918.88
2023-01-10T16:55:42.008Z,100936.94
2023-01-10T16:58:10.427Z,100926.19
2023-01-10T17:00:39.045Z,100932.88
2023-01-10T17:03:10.200Z,100936.06
2023-01-10T17:05:40.009Z,100934.53
2023-01-10T17:08:16.699Z,100933.28
2023-01-10T17:10:45.666Z,100932.19
2023-01-10T17:13:13.632Z,100936.91
2023-01-10T17:15:41.399Z,100934.53
2023-01-10T17:18:11.544Z,100932.97
2023-01-10T17:20:40.640Z,100932.59
2023-01-10T17:23:10.098Z,100932.69
2023-01-10T17:25:37.852Z,100923.78
2023-01-10T17:28:06.046Z,100921.56
2023-01-10T17:30:33.872Z,100913.47
2023-01-10T17:33:01.606Z,100908.53
2023-01-10T17:35:32.429Z,100915.94
2023-01-10T17:38:01.935Z,100910.22
2023-01-10T17:40:29.769Z,100908.97
2023-01-10T17:42:57.501Z,100920.72
2023-01-10T17:45:25.247Z,100921.75
2023-01-10T17:47:53.146Z,100922.06
2023-01-10T17:50:20.883Z,100921.66
2023-01-10T17:52:48.746Z,100918.78
2023-01-10T17:55:17.918Z,100915.75
2023-01-10T17:57:45.707Z,100911.59
2023-01-10T18:00:14.601Z,100901.03
2023-01-10T18:02:42.419Z,100898.72
2023-01-10T18:05:10.369Z,100878.88
2023-01-10T18:07:38.188Z,100891.78
2023-01-10T18:10:08.668Z,100878.03
2023-01-10T18:12:38.193Z,100873.81
2023-01-10T18:15:06.957Z,100879.25
2023-01-10T18:17:34.673Z,100889.38
2023-01-10T18:20:02.447Z,100878.50
2023-01-10T18:22:47.756Z,100886.06
2023-01-10T18:25:17.501Z,100883.19
2023-01-10T18:27:50.367Z,100868.84
2023-01-10T18:30:21.828Z,100872.06
2023-01-10T18:32:50.031Z,100874.38
2023-01-10T18:35:17.958Z,100872.16
2023-01-10T18:37:46.093Z,100875.09
2023-01-10T18:40:14.528Z,100872.69
2023-01-10T18:42:42.426Z,100864.78
2023-01-10T18:45:11.807Z,100865.81
2023-01-10T18:47:39.570Z,100865.16
2023-01-10T18:50:07.719Z,100860.59
2023-01-10T18:52:35.629Z,100863.47
2023-01-10T18:55:03.500Z,100873.34
2023-01-10T18:57:32.420Z,100862.78
2023-01-10T19:00:00.123Z,100864.78
2023-01-10T19:02:29.328Z,100874.25
2023-01-10T19:04:57.060Z,100852.44
2023-01-10T19:07:24.999Z,100873.00
2023-01-10T19:09:52.799Z,100861.69
2023-01-10T19:12:20.594Z,100866.22
2023-01-10T19:14:48.287Z,100856.75
2023-01-10T19:17:17.179Z,100845.81
2023-01-10T19:19:46.325Z,100842.75
2023-01-10T19:22:14.080Z,100849.34
2023-01-10T19:24:41.938Z,100847.34
2023-01-10T19:27:10.796Z,100845.34
2023-01-10T19:29:38.643Z,100836.91
2023-01-10T19:32:06.596Z,100840.53
2023-01-10T19:34:34.633Z,100830.88
2023-01-10T19:37:03.772Z,100826.97
2023-01-10T19:39:31.515Z,100815.72
2023-01-10T19:41:59.341Z,100838.63
2023-01-10T19:44:27.095Z,100827.53
2023-01-10T19:46:54.928Z,100821.84
2023-01-10T19:49:23.868Z,100831.44
2023-01-10T19:51:53.735Z,100825.25
2023-01-10T19:54:23.732Z,100821.00
2023-01-10T19:56:51.444Z,100820.94
2023-01-10T19:59:19.978Z,100821.47
2023-01-10T20:01:47.951Z,100817.19
2023-01-10T20:04:15.726Z,100812.66
2023-01-10T20:06:43.528Z,100801.16
2023-01-10T20:09:13.855Z,100791.88
2023-01-10T20:11:46.036Z,100795.03
2023-01-10T20:14:16.564Z,100807.22
2023-01-10T20:16:44.785Z,100803.59
2023-01-10T20:19:13.208Z,100796.00
2023-01-10T20:21:42.092Z,100791.16
2023-01-10T20:24:12.991Z,100805.31
2023-01-10T20:26:42.131Z,100800.91
2023-01-10T20:29:10.041Z,100800.13
2023-01-10T20:31:37.848Z,100806.16
2023-01-10T20:34:06.519Z,100803.59
2023-01-10T20:36:34.267Z,100804.63
2023-01-10T20:39:02.081Z,100803.19
2023-01-10T20:41:31.283Z,100797.34
2023-01-10T20:44:00.383Z,100787.38
2023-01-10T20:46:30.666Z,100785.75
2023-01-10T20:49:02.250Z,100786.59
2023-01-10T20:51:32.530Z,100790.34
2023-01-10T20:54:00.726Z,100788.81
2023-01-10T20:56:31.067Z,100796.81
2023-01-10T20:59:00.276Z,100792.28
2023-01-10T21:01:34.539Z,100783.47
2023-01-10T21:04:04.295Z,100785.06
2023-01-10T21:06:32.149Z,100796.19
2023-01-10T21:09:00.490Z,100782.25
2023-01-10T21:11:28.731Z,100785.03
2023-01-10T21:13:56.491Z,100778.16
2023-01-10T21:16:25.861Z,100785.44
2023-01-10T21:18:53.975Z,100779.91
2023-01-10T21:21:23.524Z,100776.91
2023-01-10T21:23:51.490Z,100778.69
2023-01-10T21:26:19.344Z,100769.34
2023-01-10T21:28:47.609Z,100772.97
2023-01-10T21:31:17.197Z,100768.81
2023-01-10T21:33:46.692Z,100770.31
2023-01-10T21:36:14.628Z,100768.59
2023-01-10T21:38:42.391Z,100773.78
2023-01-10T21:41:13.211Z,100773.03
2023-01-10T21:43:44.327Z,100768.94
2023-01-10T21:46:12.905Z,100765.91
2023-01-10T21:48:40.763Z,100767.28
2023-01-10T21:51:09.840Z,100758.72
2023-01-10T21:53:41.235Z,100764.56
2023-01-10T21:56:09.579Z,100753.53
2023-01-10T21:58:37.364Z,100742.81
2023-01-10T22:01:06.043Z,100741.78
2023-01-10T22:03:34.962Z,100740.06
2023-01-10T22:06:02.731Z,100729.13
2023-01-10T22:08:31.924Z,100726.66
2023-01-10T22:10:59.680Z,100739.56
2023-01-10T22:13:27.497Z,100735.81
2023-01-10T22:15:59.263Z,100724.53
2023-01-10T22:18:27.490Z,100728.97
2023-01-10T22:20:56.378Z,100718.41
2023-01-10T22:23:24.989Z,100719.63
2023-01-10T22:26:01.746Z,100711.69
2023-01-10T22:28:29.667Z,100715.94
2023-01-10T22:30:57.853Z,100702.50
2023-01-10T22:33:29.383Z,100712.66
2023-01-10T22:35:57.165Z,100711.13
2023-01-10T22:38:24.936Z,100695.41
2023-01-10T22:40:52.764Z,100699.56
2023-01-10T22:43:21.848Z,100711.13
2023-01-10T22:45:49.697Z,100712.25
2023-01-10T22:48:17.500Z,100700.00
2023-01-10T22:50:49.011Z,100710.50
2023-01-10T22:53:16.840Z,100706.50
2023-01-10T22:55:44.699Z,100707.78
2023-01-10T22:58:12.400Z,100716.84
2023-01-10T23:00:41.714Z,100714.38
2023-01-10T23:03:09.410Z,100716.47
2023-01-10T23:05:37.095Z,100715.16
2023-01-10T23:08:04.984Z,100709.19
2023-01-10T23:10:32.787Z,100709.28
2023-01-10T23:13:02.042Z,100717.47
2023-01-10T23:15:30.111Z,100719.16
2023-01-10T23:17:59.259Z,100721.84
2023-01-10T23:20:27.162Z,100715.16
2023-01-10T23:22:54.924Z,100709.03
2023-01-10T23:25:22.636Z,100715.81
2023-01-10T23:27:50.432Z,100718.00
2023-01-10T23:30:18.517Z,100726.81
2023-01-10T23:32:46.285Z,100727.19
2023-01-10T23:35:15.427Z,100727.69
2023-01-10T23:37:43.214Z,100734.59
2023-01-10T23:40:12.082Z,100738.16
2023-01-10T23:42:39.852Z,100732.69
2023-01-10T23:45:09.170Z,100739.06
2023-01-10T23:47:36.960Z,100739.63
2023-01-10T23:50:05.853Z,100731.22
2023-01-10T23:52:34.970Z,100724.13
2023-01-10T23:55:02.691Z,100719.81
2023-01-10T23:57:30.441Z,100725.06
2023-01-10T23:59:59.850Z,100722.88
